^^

Meteo Aereoporti Centro-Italia

 

 
LIRZ - Perugia S.Egidio (208 m.)
Dati ricevuti: 25/01/2021 09:20
Molto nuvoloso
Molto nuvoloso
 Vento da NNW
Vento: NNW 7 km/h
TEMPERATURA: 3°C
Raffreddamento da Vento: 1°C
P.to di Rugiada: 3°C
Umidità: 100%
Pressione: 1002 hPa
Nuvole: Molto nuvoloso
Dettagli Nuvole: Molto nuvoloso 1006 m
2021/01/25 08:20 LIRZ 250820Z AUTO 33004KT //// // BKN033/// 03/03 Q1002
 
LIPY - Ancona Falconara (12 m.)
Dati ricevuti: 25/01/2021 09:20
Pioggia, Molto Nuvoloso
Pioggia, Molto Nuvoloso
 Vento da S
Vento: S 11 km/h
TEMPERATURA: 6°C
Raffreddamento da Vento: 4°C
P.to di Rugiada: 6°C
Umidità: 100%
Pressione: 1001 hPa
Condizioni generali: Pioggia
Nuvole: Molto nuvoloso
Visibilità: 10 km
Dettagli Nuvole: Molto nuvoloso 1524 m
2021/01/25 08:20 LIPY 250820Z AUTO 19006KT 9999 RA BKN050/// 06/06 Q1001
 
LIPR - Rimini Miramare (12 m.)
Dati ricevuti: 25/01/2021 09:20
Molto nuvoloso
Molto nuvoloso
 Vento da S
Vento: S 24 km/h
TEMPERATURA: 5°C
Raffreddamento da Vento: 1°C
P.to di Rugiada: 2°C
Umidità: 81%
Pressione: 999 hPa
Nuvole: Molto nuvoloso
Visibilità: 10 km
Dettagli Nuvole: Qualche nuvola 305 m
Molto nuvoloso 1219 m
Molto nuvoloso 1524 m
2021/01/25 08:20 LIPR 250820Z 19013KT 9999 FEW010 BKN040 BKN050 05/02 Q0999
 
LIRF - Roma Fiumicino (2 m.)
Dati ricevuti: 25/01/2021 09:20
Poco nuvoloso
Poco nuvoloso
 Vento da WSW
Vento: WSW 41 km/h
TEMPERATURA: 13°C
P.to di Rugiada: 8°C
Umidità: 72%
Pressione: 1004 hPa
Nuvole: Poco nuvoloso
Visibilità: 10 km
Dettagli Nuvole: Poco nuvoloso 610 m
2021/01/25 08:20 LIRF 250820Z 24022KT 9999 SCT020 13/08 Q1004 NOSIG
 
LIRA - Roma Ciampino (129 m.)
Dati ricevuti: 25/01/2021 09:20
Molto nuvoloso
Molto nuvoloso
 Vento da S
Vento: S 17 km/h
TEMPERATURA: 9°C
Raffreddamento da Vento: 7°C
P.to di Rugiada: 6°C
Umidità: 82%
Pressione: 1004 hPa
Nuvole: Molto nuvoloso
Visibilità: 10 km
Dettagli Nuvole: Poco nuvoloso 762 m
Molto nuvoloso 1067 m
2021/01/25 08:20 LIRA 250820Z 19009KT 9999 SCT025 BKN035 09/06 Q1004
 
LIRU - Roma Urbe (17 m.)
Dati ricevuti: 25/01/2021 08:50
Molto nuvoloso
Molto nuvoloso
 Vento da direzione variabile
Vento: direzione variabile 6 km/h
TEMPERATURA: 3°C
P.to di Rugiada: 3°C
Umidità: 100%
Pressione: 1005 hPa
Nuvole: Molto nuvoloso
Visibilità: 6 km
Dettagli Nuvole: Qualche nuvola 457 m
Molto nuvoloso 762 m
2021/01/25 07:50 LIRU 250750Z VRB03KT 6000 FEW015 BKN025 03/03 Q1005
 
LIVF - Frontone (570 m.)
Dati ricevuti: 25/01/2021 07:55
Dati non aggiornati
Pioggia, Foschia, Coperto
Pioggia, Foschia, Coperto
 Vento da SSW
Vento: SSW 37 km/h
TEMPERATURA: 2°C
Raffreddamento da Vento: -4°C
P.to di Rugiada: 1°C
Umidità: 93%
Pressione: 998 hPa
Condizioni generali: Pioggia, Foschia
Nuvole: Coperto
Visibilità: 3 km
Dettagli Nuvole: Coperto 457 m
2021/01/25 06:55 LIVF 250655Z 20020KT 3000 RA BR OVC015 02/01 Q0998 RMK OVC MON INVIS VAL FOSCHIA VIS MIN 3000
 
LIRQ - Firenze Peretola (40 m.)
Dati ricevuti: 25/01/2021 09:20
Foschia, Molto Nuvoloso
Foschia, Molto Nuvoloso
 Vento da direzione variabile
Vento: direzione variabile 4 km/h
TEMPERATURA: 4°C
P.to di Rugiada: 4°C
Umidità: 100%
Pressione: 999 hPa
Condizioni generali: Foschia
Nuvole: Molto nuvoloso
Visibilità: 4 km
Dettagli Nuvole: Qualche nuvola 91 m
Molto nuvoloso 762 m
2021/01/25 08:20 LIRQ 250820Z VRB02KT 4000 BR FEW003 BKN025 04/04 Q0999
 
LIBP - Pescara (10 m.)
Dati ricevuti: 25/01/2021 09:20
Molto nuvoloso
Molto nuvoloso
 Vento da SW
Vento: SW 30 km/h
TEMPERATURA: 10°C
Raffreddamento da Vento: 7°C
P.to di Rugiada: -2°C
Umidità: 43%
Pressione: 1001 hPa
Nuvole: Molto nuvoloso
Visibilità: 10 km
Dettagli Nuvole: Molto nuvoloso 3048 m
2021/01/25 08:20 LIBP 250820Z AUTO 22016KT 9999 BKN100/// 10/M02 Q1001
 
LIRV - Viterbo (300 m.)
Dati ricevuti: 25/01/2021 08:55
Pioggia debole, Molto Nuvoloso
Pioggia debole, Molto Nuvoloso
 Vento da S
Vento: S 19 km/h
TEMPERATURA: 7°C
Raffreddamento da Vento: 4°C
P.to di Rugiada: 5°C
Umidità: 87%
Pressione: 1002 hPa
Condizioni generali: Pioggia debole
Nuvole: Molto nuvoloso
Visibilità: 10 km
Dettagli Nuvole: Poco nuvoloso 488 m
Molto nuvoloso 732 m
2021/01/25 07:55 LIRV 250755Z 18010KT 9999 -RA SCT016 BKN024 07/05 Q1002
 
LIQN - Rieti (389 m.)
Dati ricevuti: 24/01/2021 17:50
Dati non aggiornati
Pioggia debole, Foschia, Molto Nuvoloso
Pioggia debole, Foschia, Molto Nuvoloso
 Vento da NNE
Vento: NNE 7 km/h
TEMPERATURA: 5°C
Raffreddamento da Vento: 3°C
P.to di Rugiada: 5°C
Umidità: 100%
Pressione: 995 hPa
Condizioni generali: Pioggia debole, Foschia
Nuvole: Molto nuvoloso
Visibilità: 4 km
Dettagli Nuvole: Qualche nuvola 152 m
Molto nuvoloso 762 m
2021/01/24 16:50 LIQN 241650Z 02004KT 4000 -RA BR FEW005 BKN025 05/05 Q0995
 
LIRG - Guidonia -RM- (88 m.)
Dati ricevuti: 25/01/2021 08:55
Pioggia debole, Molto Nuvoloso
Pioggia debole, Molto Nuvoloso
 Vento da E
Vento: E 7 km/h
TEMPERATURA: 6°C
Raffreddamento da Vento: 4°C
P.to di Rugiada: 5°C
Umidità: 93%
Pressione: 1006 hPa
Condizioni generali: Pioggia debole
Nuvole: Molto nuvoloso
Visibilità: 10 km
Dettagli Nuvole: Poco nuvoloso 610 m
Molto nuvoloso 1067 m
2021/01/25 07:55 LIRG 250755Z 08004KT 030V120 9999 -RA SCT020 BKN035 06/05 Q1006
 
LIRK - Terminillo -RI-(1874 m.)
Dati ricevuti: 25/01/2021 08:10
Dati non aggiornati

 Vento da WNW
Vento: WNW 17 km/h, Raffica: 39 km/h
TEMPERATURA: -4°C
Raffreddamento da Vento: -9°C
P.to di Rugiada: -5°C
Umidità: 93%
Pressione: 1000 hPa
2021/01/25 07:10 LIRK 250710Z AUTO 30009G21KT //// M04/M05 Q1000
 
LIPK - Forlì (27 m.)
Dati ricevuti: 22/01/2021 17:50
Dati non aggiornati
Poco nuvoloso
Poco nuvoloso
 Vento da SE
Vento: SE 13 km/h
TEMPERATURA: 14°C
P.to di Rugiada: 6°C
Umidità: 59%
Pressione: 998 hPa
Nuvole: Poco nuvoloso
Visibilità: 10 km
Dettagli Nuvole: Poco nuvoloso 914 m
2021/01/22 16:50 LIPK 221650Z 13007KT 9999 SCT030 14/06 Q0998
 
LIRS - Grosseto (5 m.)
Dati ricevuti: 25/01/2021 08:55
Molto nuvoloso
Molto nuvoloso
 Vento da E
Vento: E 7 km/h
TEMPERATURA: 8°C
Raffreddamento da Vento: 7°C
P.to di Rugiada: 6°C
Umidità: 87%
Pressione: 1000 hPa
Nuvole: Molto nuvoloso
Visibilità: 10 km
Dettagli Nuvole: Qualche nuvola 610 m
Molto nuvoloso 762 m
2021/01/25 07:55 LIRS 250755Z 09004KT 9999 FEW020 BKN025 08/06 Q1000
 
LIRP - Pisa S.Giusto (2 m.)
Dati ricevuti: 25/01/2021 09:15
Molto nuvoloso
Molto nuvoloso
 Vento da W
Vento: W 41 km/h, Raffica: 61 km/h
TEMPERATURA: 11°C
P.to di Rugiada: 8°C
Umidità: 82%
Pressione: 999 hPa
Nuvole: Molto nuvoloso
Visibilità: 10 km
Dettagli Nuvole: Qualche nuvola 762 m
Molto nuvoloso 914 m
2021/01/25 08:15 LIRP 250815Z 26022G33KT 9999 FEW025 BKN030 11/08 Q0999 NOSIG